Time;durP1;ratioP1;P1;durP2;ratioP2;P2;SDS_P1;SDS_P2;PMS_P1;PMS_P2;Temp;Humidity;BMP_temperature;BMP_pressure;BME280_temperature;BME280_humidity;BME280_pressure;Samples;Min_cycle;Max_cycle;Signal;HPM_P1;HPM_P2
2022/03/11 00:02:21;;;;;;;10.83;9.37;;;2.20;91.60;;;;;;5054545;28;20202;-72
2022/03/11 00:04:47;;;;;;;15.13;9.57;;;2.20;91.60;;;;;;5054399;28;20184;-73
2022/03/11 00:07:13;;;;;;;12.47;9.47;;;2.20;91.60;;;;;;5053126;28;20183;-73
2022/03/11 00:09:39;;;;;;;13.43;9.20;;;2.10;91.30;;;;;;5054565;28;20254;-73
2022/03/11 00:12:07;;;;;;;11.93;9.87;;;2.00;91.50;;;;;;5054353;28;20180;-73
2022/03/11 00:14:33;;;;;;;12.10;9.23;;;1.90;91.40;;;;;;5054011;28;20182;-73
2022/03/11 00:16:59;;;;;;;11.73;9.97;;;1.90;91.60;;;;;;5053999;28;20176;-73
2022/03/11 00:19:24;;;;;;;12.17;9.33;;;1.90;91.60;;;;;;5054360;28;20221;-73
2022/03/11 00:21:50;;;;;;;12.60;8.97;;;1.80;91.60;;;;;;5054302;28;20597;-73
2022/03/11 00:24:16;;;;;;;10.70;8.77;;;1.80;91.70;;;;;;5053868;28;20614;-73
2022/03/11 00:26:41;;;;;;;9.70;8.57;;;1.70;92.00;;;;;;5053797;28;20221;-73
2022/03/11 00:29:07;;;;;;;12.17;9.80;;;1.60;91.60;;;;;;5054332;28;20184;-73
2022/03/11 00:31:32;;;;;;;13.07;9.57;;;1.50;91.90;;;;;;5053792;28;20266;-73
2022/03/11 00:34:01;;;;;;;12.67;9.47;;;1.40;92.20;;;;;;5053855;28;20282;-73
2022/03/11 00:36:27;;;;;;;13.50;10.47;;;1.30;92.70;;;;;;5053930;28;20612;-72
2022/03/11 00:38:52;;;;;;;12.40;9.10;;;1.20;92.90;;;;;;5053787;28;20234;-72
2022/03/11 00:41:18;;;;;;;10.97;8.53;;;1.20;93.00;;;;;;5068149;28;20542;-72
2022/03/11 00:43:43;;;;;;;11.83;9.40;;;1.20;93.30;;;;;;5073859;28;20700;-72
2022/03/11 00:46:09;;;;;;;12.50;9.73;;;1.10;93.40;;;;;;5072229;28;20211;-72
2022/03/11 00:48:35;;;;;;;13.40;9.33;;;1.00;93.60;;;;;;5072288;28;20702;-72
2022/03/11 00:51:01;;;;;;;12.10;10.07;;;1.00;93.70;;;;;;5073293;28;20246;-72
2022/03/11 00:53:27;;;;;;;13.30;9.13;;;0.90;93.90;;;;;;5073354;28;20195;-73
2022/03/11 00:55:54;;;;;;;11.23;9.20;;;0.90;93.90;;;;;;5073218;28;20203;-72
2022/03/11 00:58:20;;;;;;;9.83;8.80;;;0.80;94.10;;;;;;5073384;28;20203;-73
2022/03/11 01:00:45;;;;;;;13.63;9.97;;;0.80;94.40;;;;;;5073291;28;20182;-73
2022/03/11 01:03:11;;;;;;;11.70;8.87;;;0.70;94.60;;;;;;5073230;28;20243;-73
2022/03/11 01:05:36;;;;;;;13.00;9.63;;;0.60;95.00;;;;;;5072261;28;20244;-73
2022/03/11 01:08:02;;;;;;;11.33;9.33;;;0.60;95.00;;;;;;5073089;28;20777;-74
2022/03/11 01:10:28;;;;;;;12.53;9.43;;;0.50;95.40;;;;;;5072906;28;20250;-73
2022/03/11 01:12:54;;;;;;;12.83;10.13;;;0.50;95.60;;;;;;5067444;28;20599;-73
2022/03/11 01:15:20;;;;;;;14.07;10.27;;;0.40;95.90;;;;;;5051449;28;20190;-73
2022/03/11 01:17:46;;;;;;;12.53;9.87;;;0.40;96.20;;;;;;5052825;28;20667;-74
2022/03/11 01:20:11;;;;;;;12.90;9.90;;;0.30;96.20;;;;;;5053093;28;20518;-73
2022/03/11 01:22:37;;;;;;;13.73;10.20;;;0.40;96.40;;;;;;5053151;28;20200;-74
2022/03/11 01:25:04;;;;;;;13.67;9.17;;;0.40;96.40;;;;;;5052548;28;20268;-73
2022/03/11 01:27:30;;;;;;;11.83;9.30;;;0.40;96.60;;;;;;5052569;28;20218;-73
2022/03/11 01:29:56;;;;;;;11.67;9.97;;;0.30;96.70;;;;;;5052819;28;20606;-73
2022/03/11 01:32:21;;;;;;;12.53;9.80;;;0.20;97.10;;;;;;5052746;28;21797;-73
2022/03/11 01:34:47;;;;;;;10.93;8.43;;;0.20;97.40;;;;;;5052851;28;20873;-73
2022/03/11 01:37:12;;;;;;;10.90;8.97;;;0.10;97.40;;;;;;5052488;28;20196;-72
2022/03/11 01:39:38;;;;;;;15.50;9.40;;;0.20;97.30;;;;;;5062111;28;20207;-73
2022/03/11 01:42:04;;;;;;;11.80;8.83;;;0.20;96.90;;;;;;5082699;28;20201;-73
2022/03/11 01:44:30;;;;;;;9.80;8.33;;;0.20;96.70;;;;;;5078544;28;20209;-73
2022/03/11 01:46:55;;;;;;;10.40;8.90;;;0.20;96.70;;;;;;5084833;28;20267;-73
2022/03/11 01:49:22;;;;;;;11.03;8.43;;;0.10;96.90;;;;;;5064964;28;20241;-73
2022/03/11 01:51:47;;;;;;;10.27;8.90;;;0.10;97.10;;;;;;5072323;28;20208;-70
2022/03/11 01:54:13;;;;;;;10.50;8.90;;;0.10;97.40;;;;;;5069228;28;20275;-71
2022/03/11 01:56:39;;;;;;;11.67;9.73;;;0.00;97.70;;;;;;5053233;28;20194;-71
2022/03/11 01:59:06;;;;;;;14.00;10.10;;;-0.10;98.10;;;;;;5071986;28;20211;-70
2022/03/11 02:01:32;;;;;;;12.97;9.23;;;0.00;98.50;;;;;;5069492;28;20272;-70
2022/03/11 02:03:58;;;;;;;11.10;9.00;;;0.00;98.30;;;;;;5090844;28;20199;-70
2022/03/11 02:06:24;;;;;;;10.63;8.93;;;0.10;98.00;;;;;;5082845;28;20191;-70
2022/03/11 02:08:50;;;;;;;10.17;8.30;;;0.10;97.60;;;;;;5072135;28;20175;-70
2022/03/11 02:11:16;;;;;;;10.87;8.57;;;0.20;97.40;;;;;;5072110;28;20658;-71
2022/03/11 02:13:47;;;;;;;13.17;8.97;;;0.10;97.40;;;;;;5070157;28;20217;-72
2022/03/11 02:16:22;;;;;;;11.57;9.30;;;0.10;97.40;;;;;;5073252;28;20677;-72
2022/03/11 02:18:48;;;;;;;13.03;9.23;;;0.00;97.40;;;;;;5070719;28;20210;-72
2022/03/11 02:21:15;;;;;;;11.53;9.27;;;0.00;97.50;;;;;;5078390;28;20655;-72
2022/03/11 02:23:53;;;;;;;9.80;8.80;;;0.00;97.70;;;;;;5068732;28;20195;-72
2022/03/11 02:26:22;;;;;;;12.30;9.60;;;-0.10;98.00;;;;;;5071079;28;20673;-72
2022/03/11 02:28:50;;;;;;;11.57;8.73;;;-0.10;98.20;;;;;;5071715;28;20271;-71
2022/03/11 02:31:18;;;;;;;12.00;8.30;;;-0.10;97.90;;;;;;5068980;28;20205;-71
2022/03/11 02:33:43;;;;;;;11.53;7.97;;;-0.10;96.70;;;;;;5054539;28;20223;-71
2022/03/11 02:36:09;;;;;;;16.37;8.80;;;-0.10;96.30;;;;;;5051449;28;20634;-72
2022/03/11 02:38:36;;;;;;;9.30;8.30;;;-0.20;96.00;;;;;;5065943;28;20211;-71
2022/03/11 02:41:02;;;;;;;11.93;8.23;;;-0.20;96.00;;;;;;5074510;28;20187;-70
2022/03/11 02:43:28;;;;;;;13.67;8.87;;;-0.20;95.70;;;;;;5077973;28;20197;-71
2022/03/11 02:45:53;;;;;;;13.90;7.87;;;-0.20;95.60;;;;;;5071903;28;20202;-72
2022/03/11 02:48:19;;;;;;;9.07;8.10;;;-0.20;95.60;;;;;;5062218;28;20188;-70
2022/03/11 02:50:45;;;;;;;12.30;7.67;;;-0.20;95.60;;;;;;5064019;28;20186;-71
2022/03/11 02:53:11;;;;;;;11.53;7.77;;;-0.30;95.50;;;;;;5071002;28;20614;-71
2022/03/11 02:55:36;;;;;;;9.33;7.90;;;-0.30;95.30;;;;;;5070597;28;20186;-71
2022/03/11 02:58:03;;;;;;;9.20;8.20;;;-0.40;95.30;;;;;;5067673;28;20256;-71
2022/03/11 03:00:28;;;;;;;10.47;7.80;;;-0.50;95.30;;;;;;5071054;28;20594;-70
2022/03/11 03:02:54;;;;;;;10.53;7.30;;;-0.50;95.10;;;;;;5070945;28;20273;-71
2022/03/11 03:05:19;;;;;;;8.97;7.40;;;-0.50;94.80;;;;;;5070727;28;20183;-71
2022/03/11 03:07:45;;;;;;;10.73;7.40;;;-0.50;94.90;;;;;;5069049;28;20187;-71
2022/03/11 03:10:11;;;;;;;8.40;7.33;;;-0.60;94.70;;;;;;5071333;28;20263;-71
2022/03/11 03:12:38;;;;;;;14.40;8.20;;;-0.60;94.90;;;;;;5079242;28;20199;-71
2022/03/11 03:15:04;;;;;;;8.97;8.03;;;-0.70;95.00;;;;;;5083388;28;20179;-71
2022/03/11 03:17:30;;;;;;;10.90;7.77;;;-0.80;95.00;;;;;;5071351;28;20202;-71
2022/03/11 03:19:56;;;;;;;9.13;8.03;;;-0.80;95.10;;;;;;5073233;28;20213;-71
2022/03/11 03:22:21;;;;;;;12.30;9.57;;;-0.80;95.20;;;;;;5077125;28;20171;-69
2022/03/11 03:24:47;;;;;;;11.57;9.20;;;-0.90;96.80;;;;;;5051485;28;20658;-70
2022/03/11 03:27:14;;;;;;;12.60;10.07;;;-1.00;97.90;;;;;;5056187;28;20638;-70
2022/03/11 03:29:39;;;;;;;14.97;10.90;;;-1.10;99.50;;;;;;5071214;28;20172;-70
2022/03/11 03:32:05;;;;;;;14.53;11.00;;;-1.10;99.90;;;;;;5051857;28;20199;-71
2022/03/11 03:34:33;;;;;;;14.27;10.63;;;-1.20;99.90;;;;;;5051159;28;20194;-69
2022/03/11 03:37:01;;;;;;;13.10;10.40;;;-1.30;99.90;;;;;;5066018;28;20234;-70
2022/03/11 03:39:28;;;;;;;14.73;10.37;;;-1.30;99.90;;;;;;5050868;28;20176;-69
2022/03/11 03:41:54;;;;;;;12.73;10.20;;;-1.30;99.90;;;;;;5053133;28;20173;-70
2022/03/11 03:44:20;;;;;;;13.23;10.73;;;-1.40;99.90;;;;;;5081689;28;20210;-71
2022/03/11 03:46:46;;;;;;;13.83;10.33;;;-1.40;99.90;;;;;;5090468;28;20178;-71
2022/03/11 03:49:12;;;;;;;14.10;10.93;;;-1.50;99.90;;;;;;5067192;28;20192;-71
2022/03/11 03:51:41;;;;;;;13.63;10.83;;;-1.60;99.90;;;;;;5054223;28;20695;-72
2022/03/11 03:54:09;;;;;;;12.33;10.53;;;-1.50;99.90;;;;;;5054569;28;20188;-71
2022/03/11 03:56:39;;;;;;;13.20;10.70;;;-1.50;99.90;;;;;;5070951;28;20180;-71
2022/03/11 03:59:05;;;;;;;13.13;10.13;;;-1.50;99.90;;;;;;5056005;28;20247;-71
2022/03/11 04:01:33;;;;;;;12.53;10.33;;;-1.50;99.90;;;;;;5054622;28;20652;-72
2022/03/11 04:03:59;;;;;;;13.33;9.83;;;-1.50;99.90;;;;;;5054293;28;20192;-72
2022/03/11 04:06:24;;;;;;;12.40;9.93;;;-1.60;99.90;;;;;;5053910;28;20190;-72
2022/03/11 04:08:50;;;;;;;13.63;9.83;;;-1.60;99.90;;;;;;5054237;28;20195;-72
2022/03/11 04:11:16;;;;;;;11.90;9.60;;;-1.60;99.90;;;;;;5060396;28;20677;-72
2022/03/11 04:13:42;;;;;;;13.03;10.17;;;-1.70;99.90;;;;;;5076634;28;20202;-69
2022/03/11 04:16:08;;;;;;;12.47;9.47;;;-1.70;99.90;;;;;;5077345;28;20189;-71
2022/03/11 04:18:34;;;;;;;12.77;9.67;;;-1.80;99.90;;;;;;5078520;28;20604;-71
2022/03/11 04:21:00;;;;;;;11.87;9.10;;;-1.80;99.90;;;;;;5068582;28;20614;-71
2022/03/11 04:23:25;;;;;;;12.77;8.77;;;-1.90;99.90;;;;;;5085822;28;20249;-70
2022/03/11 04:25:51;;;;;;;11.80;8.93;;;-2.00;99.90;;;;;;5082721;28;20202;-71
2022/03/11 04:28:17;;;;;;;12.77;9.30;;;-2.00;99.90;;;;;;5082344;28;20176;-70
2022/03/11 04:30:43;;;;;;;11.77;8.13;;;-2.00;99.90;;;;;;5068928;28;20186;-70
2022/03/11 04:33:08;;;;;;;14.03;8.50;;;-2.00;99.90;;;;;;5078034;28;20194;-71
2022/03/11 04:35:34;;;;;;;13.90;9.47;;;-2.00;99.90;;;;;;5082605;28;20179;-70
2022/03/11 04:38:00;;;;;;;12.37;8.33;;;-2.10;99.90;;;;;;5093956;28;20673;-70
2022/03/11 04:40:26;;;;;;;11.83;8.80;;;-2.20;99.90;;;;;;5092620;28;20273;-71
2022/03/11 04:42:51;;;;;;;10.90;8.63;;;-2.20;99.90;;;;;;5087324;28;20278;-71
2022/03/11 04:45:17;;;;;;;12.70;8.80;;;-2.20;99.90;;;;;;5079777;28;20209;-71
2022/03/11 04:47:43;;;;;;;11.97;8.70;;;-2.20;99.90;;;;;;5081800;28;20695;-71
2022/03/11 04:50:09;;;;;;;11.80;9.07;;;-2.20;99.90;;;;;;5093417;28;20179;-71
2022/03/11 04:52:34;;;;;;;10.77;8.87;;;-2.30;99.90;;;;;;5087180;28;20285;-72
2022/03/11 04:55:00;;;;;;;11.73;8.17;;;-2.30;99.90;;;;;;5063449;28;20275;-72
2022/03/11 04:57:26;;;;;;;12.57;9.03;;;-2.30;99.90;;;;;;5072366;28;20238;-72
2022/03/11 04:59:51;;;;;;;9.37;8.30;;;-2.30;99.90;;;;;;5069659;28;20172;-74
2022/03/11 05:02:27;;;;;;;11.43;7.93;;;-2.30;99.90;;;;;;5060104;28;20175;-74
2022/03/11 05:04:54;;;;;;;9.20;8.17;;;-2.40;99.90;;;;;;5063529;28;20212;-74
2022/03/11 05:07:19;;;;;;;11.13;8.73;;;-2.40;99.90;;;;;;5062102;28;20199;-74
2022/03/11 05:09:46;;;;;;;13.13;8.17;;;-2.40;99.90;;;;;;5061675;28;20937;-74
2022/03/11 05:12:12;;;;;;;10.57;8.07;;;-2.50;99.90;;;;;;5066678;28;20198;-73
2022/03/11 05:14:38;;;;;;;9.77;7.70;;;-2.50;99.90;;;;;;5062887;28;20183;-74
2022/03/11 05:17:04;;;;;;;9.60;7.60;;;-2.40;99.90;;;;;;5069896;28;20187;-74
2022/03/11 05:19:29;;;;;;;9.03;7.97;;;-2.50;99.90;;;;;;5059579;28;20511;-74
2022/03/11 05:21:55;;;;;;;11.37;8.20;;;-2.40;99.90;;;;;;5072424;28;20175;-74
2022/03/11 05:24:21;;;;;;;10.80;7.17;;;-2.50;99.90;;;;;;5068669;28;20230;-74
2022/03/11 05:26:48;;;;;;;10.30;7.17;;;-2.50;99.90;;;;;;5074238;28;20186;-74
2022/03/11 05:29:15;;;;;;;9.20;7.83;;;-2.60;99.90;;;;;;5071326;28;20201;-74
2022/03/11 05:31:41;;;;;;;12.43;6.60;;;-2.50;99.90;;;;;;5069919;28;20722;-74
2022/03/11 05:34:07;;;;;;;8.80;6.70;;;-2.60;99.90;;;;;;5072226;28;20214;-74
2022/03/11 05:36:32;;;;;;;11.53;7.37;;;-2.60;99.90;;;;;;5072095;28;20211;-75
2022/03/11 05:38:58;;;;;;;9.97;6.77;;;-2.60;99.90;;;;;;5053249;28;20216;-75
2022/03/11 05:41:24;;;;;;;8.87;7.30;;;-2.60;99.90;;;;;;5058451;28;20844;-73
2022/03/11 05:43:49;;;;;;;8.67;7.30;;;-2.60;99.90;;;;;;5077834;28;20198;-75
2022/03/11 05:46:15;;;;;;;8.37;6.93;;;-2.70;99.90;;;;;;5084756;28;20660;-74
2022/03/11 05:48:41;;;;;;;10.93;7.33;;;-2.60;99.90;;;;;;5090669;28;20718;-75
2022/03/11 05:51:07;;;;;;;12.23;7.70;;;-2.70;99.90;;;;;;5062422;28;20188;-74
2022/03/11 05:53:32;;;;;;;8.47;6.60;;;-2.70;99.90;;;;;;5065990;28;20226;-73
2022/03/11 05:55:58;;;;;;;9.10;6.40;;;-2.60;99.90;;;;;;5071526;28;20265;-73
2022/03/11 05:58:24;;;;;;;12.90;7.03;;;-2.50;99.90;;;;;;5068026;28;20724;-74
2022/03/11 06:00:49;;;;;;;9.27;7.03;;;-2.50;99.90;;;;;;5071994;28;20308;-74
2022/03/11 06:03:16;;;;;;;8.03;6.63;;;-2.50;99.90;;;;;;5056044;28;20208;-74
2022/03/11 06:05:41;;;;;;;10.67;7.20;;;-2.50;99.90;;;;;;5049465;28;20191;-75
2022/03/11 06:08:07;;;;;;;9.10;6.70;;;-2.40;99.90;;;;;;5053866;28;20179;-76
2022/03/11 06:10:32;;;;;;;9.57;6.80;;;-2.30;99.90;;;;;;5056686;28;20246;-75
2022/03/11 06:12:58;;;;;;;8.87;7.20;;;-2.20;99.90;;;;;;5049879;28;20654;-75
2022/03/11 06:15:23;;;;;;;8.10;6.50;;;-2.20;99.90;;;;;;5051479;28;20168;-75
2022/03/11 06:17:49;;;;;;;9.17;7.53;;;-2.20;99.90;;;;;;5051054;28;20200;-75
2022/03/11 06:20:15;;;;;;;6.97;6.27;;;-2.10;99.90;;;;;;5051843;28;20187;-74
2022/03/11 06:22:48;;;;;;;8.67;6.33;;;-2.10;99.90;;;;;;5058063;28;20199;-74
2022/03/11 06:25:14;;;;;;;8.60;6.37;;;-2.00;99.90;;;;;;5076840;28;20868;-75
2022/03/11 06:27:39;;;;;;;8.17;6.63;;;-1.90;99.70;;;;;;5081249;28;20248;-75
2022/03/11 06:30:06;;;;;;;7.50;6.27;;;-1.90;99.30;;;;;;5075598;28;20183;-75
2022/03/11 06:32:31;;;;;;;7.03;6.23;;;-1.80;99.10;;;;;;5070901;28;20207;-75
2022/03/11 06:34:57;;;;;;;7.63;6.57;;;-1.70;98.20;;;;;;5055948;28;20278;-75
2022/03/11 06:37:23;;;;;;;8.60;6.77;;;-1.60;97.90;;;;;;5051404;28;20203;-75
2022/03/11 06:39:49;;;;;;;9.03;6.20;;;-1.60;97.70;;;;;;5051654;28;20637;-75
2022/03/11 06:42:15;;;;;;;7.50;6.40;;;-1.60;97.50;;;;;;5060102;28;20274;-75
2022/03/11 06:44:40;;;;;;;9.17;6.37;;;-1.50;97.20;;;;;;5068625;28;20214;-73
2022/03/11 06:47:06;;;;;;;8.60;6.17;;;-1.40;96.90;;;;;;5071058;28;20206;-73
2022/03/11 06:49:32;;;;;;;7.63;5.83;;;-1.40;96.40;;;;;;5070248;28;20254;-73
2022/03/11 06:51:57;;;;;;;8.43;5.83;;;-1.30;96.30;;;;;;5070951;28;20638;-74
2022/03/11 06:54:23;;;;;;;6.63;5.93;;;-1.20;95.80;;;;;;5064879;28;20204;-73
2022/03/11 06:56:48;;;;;;;7.40;5.93;;;-1.20;95.30;;;;;;5051282;28;20202;-73
2022/03/11 06:59:14;;;;;;;8.13;5.87;;;-1.10;95.00;;;;;;5051361;28;20202;-71
2022/03/11 07:01:40;;;;;;;9.03;6.37;;;-1.00;94.70;;;;;;5063696;28;20236;-71
2022/03/11 07:04:05;;;;;;;9.10;6.73;;;-1.00;95.00;;;;;;5076969;28;20622;-70
2022/03/11 07:06:31;;;;;;;9.20;6.13;;;-0.90;99.90;;;;;;5079025;28;20171;-70
2022/03/11 07:08:56;;;;;;;11.20;6.33;;;-0.80;99.90;;;;;;5079344;28;20190;-70
2022/03/11 07:11:22;;;;;;;9.50;5.70;;;-0.70;99.90;;;;;;5066091;28;20704;-70
2022/03/11 07:13:48;;;;;;;10.70;5.80;;;-0.50;99.90;;;;;;5071438;28;20202;-70
2022/03/11 07:16:13;;;;;;;12.07;6.83;;;-0.50;99.90;;;;;;5080167;28;20178;-70
2022/03/11 07:18:39;;;;;;;15.03;6.97;;;-0.30;97.30;;;;;;5077782;28;20235;-74
2022/03/11 07:21:05;;;;;;;12.73;6.40;;;-0.20;99.00;;;;;;5078799;28;20171;-71
2022/03/11 07:23:30;;;;;;;11.70;6.87;;;-0.10;94.80;;;;;;5090393;28;20708;-71
2022/03/11 07:25:56;;;;;;;11.00;6.43;;;0.00;93.40;;;;;;5096110;28;20188;-71
2022/03/11 07:28:22;;;;;;;10.60;6.30;;;0.10;91.50;;;;;;5078569;28;20188;-72
2022/03/11 07:30:48;;;;;;;13.17;6.03;;;0.20;91.00;;;;;;5058498;28;20189;-71
2022/03/11 07:33:13;;;;;;;9.17;5.80;;;0.30;90.60;;;;;;5069772;28;20690;-72
2022/03/11 07:35:39;;;;;;;11.07;6.20;;;0.30;90.30;;;;;;5058723;28;20175;-71
2022/03/11 07:38:05;;;;;;;7.53;5.97;;;0.30;90.20;;;;;;5067039;28;20210;-71
2022/03/11 07:40:31;;;;;;;9.27;5.83;;;0.40;89.10;;;;;;5069560;28;20666;-71
2022/03/11 07:42:58;;;;;;;7.40;6.17;;;0.50;88.00;;;;;;5081978;28;20294;-73
2022/03/11 07:45:24;;;;;;;8.30;5.60;;;0.60;88.50;;;;;;5069053;28;20206;-70
2022/03/11 07:47:50;;;;;;;8.87;5.77;;;0.60;86.40;;;;;;5081403;28;20239;-72
2022/03/11 07:50:16;;;;;;;6.87;5.33;;;0.70;85.90;;;;;;5069849;28;20187;-72
2022/03/11 07:52:42;;;;;;;6.40;5.17;;;0.90;84.10;;;;;;5069601;28;20187;-71
2022/03/11 07:55:10;;;;;;;7.07;5.50;;;0.90;81.40;;;;;;5066120;28;20199;-72
2022/03/11 07:57:36;;;;;;;8.77;5.27;;;1.10;82.10;;;;;;5074088;28;20285;-73
2022/03/11 08:00:08;;;;;;;8.77;5.50;;;1.10;80.70;;;;;;5068765;28;20186;-73
2022/03/11 08:02:34;;;;;;;7.97;5.23;;;1.20;81.20;;;;;;5064502;28;20252;-72
2022/03/11 08:05:00;;;;;;;7.47;5.77;;;1.30;81.20;;;;;;5064842;28;20203;-73
2022/03/11 08:07:26;;;;;;;8.13;5.50;;;1.40;80.30;;;;;;5069632;28;20172;-71
2022/03/11 08:09:52;;;;;;;7.43;5.60;;;1.50;78.20;;;;;;5069394;28;20179;-72
2022/03/11 08:12:17;;;;;;;7.27;5.83;;;1.60;79.00;;;;;;5069311;28;20175;-71
2022/03/11 08:14:43;;;;;;;6.30;5.40;;;1.60;79.40;;;;;;5068891;28;20225;-71
2022/03/11 08:17:09;;;;;;;8.10;5.70;;;1.60;78.50;;;;;;5074139;28;20179;-72
2022/03/11 08:19:36;;;;;;;5.87;5.20;;;1.70;78.40;;;;;;5088092;28;20170;-71
2022/03/11 08:22:02;;;;;;;7.33;5.63;;;1.80;78.10;;;;;;5071533;28;20175;-73
2022/03/11 08:24:29;;;;;;;6.23;5.63;;;1.80;77.50;;;;;;5074888;28;20282;-73
2022/03/11 08:26:55;;;;;;;8.73;5.37;;;1.90;77.00;;;;;;5070382;28;20666;-72
2022/03/11 08:29:21;;;;;;;8.37;5.37;;;2.00;77.90;;;;;;5072758;28;20235;-72
2022/03/11 08:31:48;;;;;;;6.27;5.53;;;2.10;77.30;;;;;;5068400;28;20187;-73
2022/03/11 08:34:13;;;;;;;6.90;5.23;;;2.20;75.70;;;;;;5065170;28;20191;-72
2022/03/11 08:36:39;;;;;;;6.90;5.63;;;2.40;75.50;;;;;;5066931;28;20190;-72
2022/03/11 08:39:06;;;;;;;7.90;5.13;;;2.50;76.20;;;;;;5070518;28;20203;-73
2022/03/11 08:41:32;;;;;;;6.63;5.37;;;2.60;74.40;;;;;;5069482;28;20175;-72
2022/03/11 08:43:59;;;;;;;8.37;4.90;;;2.80;73.30;;;;;;5076744;28;20575;-73
2022/03/11 08:46:26;;;;;;;6.10;5.50;;;2.90;71.30;;;;;;5067253;28;20171;-73
2022/03/11 08:48:52;;;;;;;7.47;5.43;;;3.00;69.90;;;;;;5077519;28;20175;-73
2022/03/11 08:51:18;;;;;;;8.87;5.53;;;3.10;69.80;;;;;;5071436;28;20175;-71
2022/03/11 08:53:44;;;;;;;5.20;4.80;;;3.20;67.50;;;;;;5068348;28;20253;-72
2022/03/11 08:56:10;;;;;;;5.97;5.20;;;3.40;67.60;;;;;;5058437;28;20201;-71
2022/03/11 08:58:37;;;;;;;6.43;5.30;;;3.70;66.50;;;;;;5067464;28;20256;-71
2022/03/11 09:01:03;;;;;;;6.20;5.00;;;4.70;64.60;;;;;;5065723;28;20193;-70
2022/03/11 09:03:28;;;;;;;5.40;4.80;;;5.30;62.10;;;;;;5065466;28;20206;-72
2022/03/11 09:05:54;;;;;;;6.63;5.97;;;6.30;59.60;;;;;;5065713;28;20172;-74
2022/03/11 09:08:20;;;;;;;5.73;4.90;;;7.10;56.70;;;;;;5068880;28;20206;-72
2022/03/11 09:10:46;;;;;;;5.70;5.00;;;7.30;54.80;;;;;;5066455;28;20179;-71
2022/03/11 09:13:12;;;;;;;5.30;4.77;;;6.80;54.20;;;;;;5070252;28;20658;-73
2022/03/11 09:15:37;;;;;;;6.90;5.17;;;6.30;54.60;;;;;;5066155;28;20182;-76
2022/03/11 09:18:03;;;;;;;5.40;4.90;;;5.80;55.40;;;;;;5064426;28;20285;-77
2022/03/11 09:20:29;;;;;;;10.27;5.27;;;5.50;56.50;;;;;;5061564;28;20163;-77
2022/03/11 09:22:54;;;;;;;7.00;5.07;;;5.50;57.10;;;;;;5067090;28;20202;-75
2022/03/11 09:25:20;;;;;;;6.40;5.23;;;7.10;55.30;;;;;;5067632;28;20269;-75
2022/03/11 09:27:46;;;;;;;5.53;5.03;;;10.00;50.20;;;;;;5066411;28;20591;-74
2022/03/11 09:30:12;;;;;;;8.77;4.57;;;12.70;45.70;;;;;;5070705;28;20526;-74
2022/03/11 09:32:39;;;;;;;6.75;5.20;;;15.40;40.50;;;;;;5068584;28;20686;-75
2022/03/11 09:35:06;;;;;;;5.32;4.82;;;17.30;37.00;;;;;;5059725;28;20171;-76
2022/03/11 09:37:32;;;;;;;6.78;5.40;;;19.00;33.40;;;;;;5064039;28;20285;-76
2022/03/11 09:39:58;;;;;;;6.30;4.85;;;19.70;31.40;;;;;;5067223;28;20196;-76
2022/03/11 09:45:10;;;;;;;5.97;4.63;;;20.70;30.60;;;;;;5049030;28;20183;-75
2022/03/11 09:47:40;;;;;;;6.90;4.63;;;22.20;30.00;;;;;;5081759;28;20186;-75
2022/03/11 09:50:06;;;;;;;5.95;5.15;;;23.20;29.60;;;;;;5076640;28;20204;-74
2022/03/11 09:52:33;;;;;;;6.13;4.97;;;23.80;28.50;;;;;;5079852;28;20195;-75
2022/03/11 09:54:59;;;;;;;7.30;5.07;;;24.30;28.00;;;;;;5072249;28;20180;-74
2022/03/11 09:57:27;;;;;;;5.18;4.68;;;24.80;27.60;;;;;;5070101;28;20612;-76
2022/03/11 09:59:53;;;;;;;5.70;5.00;;;25.00;27.30;;;;;;5065261;28;20178;-76
2022/03/11 10:02:19;;;;;;;6.55;4.68;;;26.00;26.90;;;;;;5062981;28;20176;-76
2022/03/11 10:04:47;;;;;;;5.13;4.55;;;25.90;26.00;;;;;;5060862;28;20167;-76
2022/03/11 10:07:29;;;;;;;5.63;5.00;;;25.00;26.30;;;;;;5068527;28;20637;-74
2022/03/11 10:09:56;;;;;;;5.25;4.75;;;25.40;26.60;;;;;;5073844;28;20218;-74
2022/03/11 10:12:28;;;;;;;4.68;4.30;;;25.50;26.40;;;;;;5069111;28;20178;-76
2022/03/11 10:15:02;;;;;;;5.93;5.07;;;26.30;26.20;;;;;;5072300;28;20579;-77
2022/03/11 10:17:42;;;;;;;5.20;4.72;;;26.20;25.70;;;;;;5070000;28;20167;-75
2022/03/11 10:20:14;;;;;;;4.97;4.50;;;27.40;25.70;;;;;;5062616;28;20186;-74
2022/03/11 10:22:41;;;;;;;7.72;4.90;;;27.40;24.90;;;;;;5080833;28;20206;-74
2022/03/11 10:25:25;;;;;;;5.30;4.15;;;27.30;24.50;;;;;;5077733;28;20201;-76
2022/03/11 10:28:09;;;;;;;6.88;5.03;;;26.90;24.80;;;;;;5072417;28;20697;-76
2022/03/11 10:30:44;;;;;;;6.40;4.45;;;27.30;25.00;;;;;;5073622;28;20178;-77
2022/03/11 10:33:12;;;;;;;5.57;4.30;;;27.80;24.80;;;;;;5070220;28;20192;-76
2022/03/11 10:35:47;;;;;;;5.65;4.60;;;28.40;24.40;;;;;;5060977;28;20167;-76
2022/03/11 10:38:26;;;;;;;5.00;4.60;;;28.60;24.20;;;;;;5064373;28;20570;-77
2022/03/11 10:40:57;;;;;;;7.25;4.47;;;28.70;24.40;;;;;;5078403;28;20184;-74
2022/03/11 10:43:26;;;;;;;4.95;4.55;;;29.10;23.50;;;;;;5062485;28;20741;-77
2022/03/11 10:46:24;;;;;;;5.07;4.68;;;28.30;23.90;;;;;;5061757;28;20638;-77
2022/03/11 10:48:54;;;;;;;4.95;4.43;;;27.70;23.90;;;;;;5061647;28;20201;-75
2022/03/11 10:51:32;;;;;;;6.43;4.70;;;27.80;24.30;;;;;;5070107;28;20171;-74
2022/03/11 10:53:59;;;;;;;5.72;4.63;;;28.20;24.10;;;;;;5075176;28;20198;-76
2022/03/11 10:56:34;;;;;;;5.10;4.70;;;28.20;24.00;;;;;;5063203;28;20340;-76
2022/03/11 10:59:03;;;;;;;5.13;4.63;;;28.10;24.50;;;;;;5070675;28;20242;-75
2022/03/11 11:01:39;;;;;;;6.50;5.25;;;28.60;24.00;;;;;;5074359;28;20525;-74
2022/03/11 11:04:07;;;;;;;6.20;4.80;;;29.00;23.90;;;;;;5080629;28;20207;-74
2022/03/11 11:06:36;;;;;;;4.97;4.55;;;28.90;24.40;;;;;;5088525;28;20201;-74
2022/03/11 11:09:03;;;;;;;6.18;5.05;;;29.30;24.00;;;;;;5065648;28;20191;-75
2022/03/11 11:11:30;;;;;;;4.97;4.30;;;30.50;23.50;;;;;;5068460;28;20285;-75
2022/03/11 11:13:58;;;;;;;8.57;3.80;;;30.00;22.40;;;;;;5070900;28;20206;-76
2022/03/11 11:16:28;;;;;;;4.25;3.95;;;29.60;23.00;;;;;;5068862;28;20186;-74
2022/03/11 11:18:58;;;;;;;6.68;4.25;;;29.90;23.10;;;;;;5059904;28;20202;-75
2022/03/11 11:21:25;;;;;;;3.88;3.58;;;30.20;22.70;;;;;;5051498;28;20183;-76
2022/03/11 11:23:58;;;;;;;4.38;3.67;;;29.80;22.60;;;;;;5068567;28;20183;-74
2022/03/11 11:26:24;;;;;;;5.50;4.13;;;29.90;22.90;;;;;;5070347;28;20532;-73
2022/03/11 11:28:58;;;;;;;4.55;4.15;;;30.70;22.60;;;;;;5068780;28;20188;-74
2022/03/11 11:31:24;;;;;;;4.95;4.30;;;30.10;22.30;;;;;;5070677;28;20178;-75
2022/03/11 11:33:50;;;;;;;4.28;3.97;;;29.00;23.00;;;;;;5070411;28;20199;-74
2022/03/11 11:36:38;;;;;;;5.50;4.18;;;29.50;22.80;;;;;;5058979;28;20190;-74
2022/03/11 11:39:06;;;;;;;4.20;3.90;;;30.50;22.40;;;;;;5051107;28;20215;-75
2022/03/11 11:41:33;;;;;;;4.88;3.88;;;30.90;22.70;;;;;;5051259;28;20635;-73
2022/03/11 11:44:00;;;;;;;4.72;4.25;;;31.60;22.70;;;;;;5058555;28;20207;-73
2022/03/11 11:46:31;;;;;;;4.00;3.63;;;31.20;23.00;;;;;;5051028;28;20160;-73
2022/03/11 11:49:09;;;;;;;4.40;4.10;;;31.10;21.90;;;;;;5057300;28;20182;-77
2022/03/11 11:51:35;;;;;;;6.85;4.22;;;31.10;22.40;;;;;;5068718;28;20182;-76
2022/03/11 11:54:08;;;;;;;4.65;4.25;;;32.30;22.10;;;;;;5068823;28;20628;-74
2022/03/11 11:56:43;;;;;;;4.47;3.70;;;32.30;22.10;;;;;;5065848;28;20266;-74
2022/03/11 11:59:14;;;;;;;5.00;3.70;;;32.50;21.60;;;;;;5065556;28;20205;-73
2022/03/11 12:01:49;;;;;;;4.40;4.10;;;32.40;21.70;;;;;;5063127;28;20200;-73
2022/03/11 12:04:35;;;;;;;4.85;3.67;;;31.90;21.80;;;;;;5057451;28;20195;-74
2022/03/11 12:07:02;;;;;;;3.95;3.65;;;32.00;22.00;;;;;;5068280;28;20183;-74
2022/03/11 12:12:30;;;;;;;4.70;3.63;;;31.90;21.90;;;;;;5074597;28;20194;-75
2022/03/11 12:15:05;;;;;;;3.92;3.65;;;32.10;22.10;;;;;;5067355;28;20245;-75
2022/03/11 12:18:05;;;;;;;3.83;3.60;;;31.80;21.60;;;;;;5062059;28;20633;-74
2022/03/11 12:20:46;;;;;;;4.40;3.65;;;31.30;21.60;;;;;;5072338;28;20199;-74
2022/03/11 12:23:14;;;;;;;4.00;3.35;;;30.70;21.70;;;;;;5066825;28;20218;-74
2022/03/11 12:25:46;;;;;;;3.65;3.35;;;31.40;22.10;;;;;;5065291;28;20187;-74
2022/03/11 12:28:28;;;;;;;6.68;3.63;;;31.80;21.90;;;;;;5066103;28;20197;-74
2022/03/11 12:31:09;;;;;;;3.38;3.17;;;32.10;21.70;;;;;;5071059;28;20179;-74
2022/03/11 12:33:38;;;;;;;3.17;2.97;;;32.00;21.70;;;;;;5072984;28;20244;-74
2022/03/11 12:36:06;;;;;;;4.00;3.10;;;32.80;21.50;;;;;;5053533;28;20550;-74
2022/03/11 12:38:33;;;;;;;2.90;2.70;;;32.40;21.10;;;;;;5053510;28;20265;-74
2022/03/11 12:41:23;;;;;;;4.45;3.17;;;31.70;21.30;;;;;;5062762;28;20178;-72
2022/03/11 12:43:48;;;;;;;3.83;2.92;;;30.80;21.40;;;;;;5069916;28;20261;-72
2022/03/11 12:46:15;;;;;;;2.85;2.65;;;31.40;21.60;;;;;;5071177;28;20199;-73
2022/03/11 12:48:42;;;;;;;3.25;2.90;;;31.70;21.00;;;;;;5073255;28;20213;-73
2022/03/11 12:51:17;;;;;;;3.05;2.85;;;31.30;21.40;;;;;;5072594;28;20232;-72
2022/03/11 12:53:44;;;;;;;3.25;2.60;;;30.80;20.80;;;;;;5072244;28;20293;-72